sensor_id;sensor_type;location;lat;lon;timestamp;P1;durP1;ratioP1;P2;durP2;ratioP2
76439;SDS011;65274;44.982;20.060;2024-02-15T00:00:15;42.13;;;23.65;;
76439;SDS011;65274;44.982;20.060;2024-02-15T00:02:42;49.50;;;26.23;;
76439;SDS011;65274;44.982;20.060;2024-02-15T00:05:10;61.10;;;27.35;;
76439;SDS011;65274;44.982;20.060;2024-02-15T00:07:36;48.33;;;23.75;;
76439;SDS011;65274;44.982;20.060;2024-02-15T00:10:03;50.05;;;27.15;;
76439;SDS011;65274;44.982;20.060;2024-02-15T00:12:32;48.53;;;25.55;;
76439;SDS011;65274;44.982;20.060;2024-02-15T00:15:44;50.63;;;27.75;;
76439;SDS011;65274;44.982;20.060;2024-02-15T00:18:34;62.47;;;28.70;;
76439;SDS011;65274;44.982;20.060;2024-02-15T00:21:11;44.77;;;24.17;;
76439;SDS011;65274;44.982;20.060;2024-02-15T00:23:58;52.22;;;24.98;;
76439;SDS011;65274;44.982;20.060;2024-02-15T00:26:25;64.72;;;27.92;;
76439;SDS011;65274;44.982;20.060;2024-02-15T00:41:52;54.40;;;25.85;;
76439;SDS011;65274;44.982;20.060;2024-02-15T01:06:52;51.20;;;26.73;;
76439;SDS011;65274;44.982;20.060;2024-02-15T01:12:05;50.55;;;29.15;;
76439;SDS011;65274;44.982;20.060;2024-02-15T01:15:10;49.13;;;26.40;;
76439;SDS011;65274;44.982;20.060;2024-02-15T01:21:06;48.15;;;26.45;;
76439;SDS011;65274;44.982;20.060;2024-02-15T01:23:50;45.15;;;24.13;;
76439;SDS011;65274;44.982;20.060;2024-02-15T06:33:50;66.63;;;35.15;;
76439;SDS011;65274;44.982;20.060;2024-02-15T06:39:43;66.85;;;33.22;;
76439;SDS011;65274;44.982;20.060;2024-02-15T06:42:34;59.53;;;32.50;;
76439;SDS011;65274;44.982;20.060;2024-02-15T06:45:23;61.78;;;32.30;;
76439;SDS011;65274;44.982;20.060;2024-02-15T06:48:08;84.22;;;42.10;;
76439;SDS011;65274;44.982;20.060;2024-02-15T06:50:35;74.47;;;38.17;;
76439;SDS011;65274;44.982;20.060;2024-02-15T06:53:02;59.53;;;33.15;;
76439;SDS011;65274;44.982;20.060;2024-02-15T06:55:30;69.00;;;37.05;;
76439;SDS011;65274;44.982;20.060;2024-02-15T06:57:56;67.88;;;35.92;;
76439;SDS011;65274;44.982;20.060;2024-02-15T07:00:22;66.88;;;36.92;;
76439;SDS011;65274;44.982;20.060;2024-02-15T07:02:49;65.90;;;33.77;;
76439;SDS011;65274;44.982;20.060;2024-02-15T07:05:16;75.32;;;35.33;;
76439;SDS011;65274;44.982;20.060;2024-02-15T07:07:42;79.57;;;39.05;;
76439;SDS011;65274;44.982;20.060;2024-02-15T07:10:09;66.47;;;33.67;;
76439;SDS011;65274;44.982;20.060;2024-02-15T07:12:35;69.25;;;35.03;;
76439;SDS011;65274;44.982;20.060;2024-02-15T07:15:04;76.53;;;36.50;;
76439;SDS011;65274;44.982;20.060;2024-02-15T07:17:32;69.22;;;35.85;;
76439;SDS011;65274;44.982;20.060;2024-02-15T07:19:58;62.00;;;35.17;;
76439;SDS011;65274;44.982;20.060;2024-02-15T07:22:24;67.03;;;36.78;;
76439;SDS011;65274;44.982;20.060;2024-02-15T07:24:50;73.43;;;38.03;;
76439;SDS011;65274;44.982;20.060;2024-02-15T07:27:17;75.78;;;37.67;;
76439;SDS011;65274;44.982;20.060;2024-02-15T07:29:43;72.90;;;39.55;;
76439;SDS011;65274;44.982;20.060;2024-02-15T07:32:09;69.72;;;36.20;;
76439;SDS011;65274;44.982;20.060;2024-02-15T07:34:37;76.00;;;40.15;;
76439;SDS011;65274;44.982;20.060;2024-02-15T07:37:03;74.70;;;41.42;;
76439;SDS011;65274;44.982;20.060;2024-02-15T07:39:30;81.18;;;40.00;;
76439;SDS011;65274;44.982;20.060;2024-02-15T07:41:56;72.40;;;41.22;;
76439;SDS011;65274;44.982;20.060;2024-02-15T07:44:26;82.30;;;40.17;;
76439;SDS011;65274;44.982;20.060;2024-02-15T07:46:55;78.38;;;40.38;;
76439;SDS011;65274;44.982;20.060;2024-02-15T07:49:21;78.93;;;37.92;;
76439;SDS011;65274;44.982;20.060;2024-02-15T07:51:47;77.88;;;38.95;;
76439;SDS011;65274;44.982;20.060;2024-02-15T07:54:20;73.68;;;38.80;;
76439;SDS011;65274;44.982;20.060;2024-02-15T07:56:47;119.43;;;59.33;;
76439;SDS011;65274;44.982;20.060;2024-02-15T07:59:16;80.82;;;41.08;;
76439;SDS011;65274;44.982;20.060;2024-02-15T08:01:43;68.68;;;34.95;;
76439;SDS011;65274;44.982;20.060;2024-02-15T08:04:12;78.70;;;41.70;;
76439;SDS011;65274;44.982;20.060;2024-02-15T08:06:39;82.40;;;38.45;;
76439;SDS011;65274;44.982;20.060;2024-02-15T08:09:06;90.00;;;55.30;;
76439;SDS011;65274;44.982;20.060;2024-02-15T08:11:38;69.82;;;42.30;;
76439;SDS011;65274;44.982;20.060;2024-02-15T08:14:05;72.93;;;38.03;;
76439;SDS011;65274;44.982;20.060;2024-02-15T08:16:35;63.75;;;36.95;;
76439;SDS011;65274;44.982;20.060;2024-02-15T08:19:01;69.18;;;36.03;;
76439;SDS011;65274;44.982;20.060;2024-02-15T08:21:29;62.28;;;34.00;;
76439;SDS011;65274;44.982;20.060;2024-02-15T08:23:58;61.00;;;33.22;;
76439;SDS011;65274;44.982;20.060;2024-02-15T08:26:25;54.08;;;31.45;;
76439;SDS011;65274;44.982;20.060;2024-02-15T08:28:51;55.85;;;32.30;;
76439;SDS011;65274;44.982;20.060;2024-02-15T08:31:18;57.80;;;34.00;;
76439;SDS011;65274;44.982;20.060;2024-02-15T08:33:44;65.35;;;32.67;;
76439;SDS011;65274;44.982;20.060;2024-02-15T08:36:11;53.85;;;29.88;;
76439;SDS011;65274;44.982;20.060;2024-02-15T08:38:39;49.65;;;29.20;;
76439;SDS011;65274;44.982;20.060;2024-02-15T08:41:12;48.33;;;28.67;;
76439;SDS011;65274;44.982;20.060;2024-02-15T08:43:39;49.38;;;28.25;;
76439;SDS011;65274;44.982;20.060;2024-02-15T08:46:08;56.47;;;28.58;;
76439;SDS011;65274;44.982;20.060;2024-02-15T10:23:28;13.98;;;9.70;;
76439;SDS011;65274;44.982;20.060;2024-02-15T10:29:17;16.65;;;10.00;;
76439;SDS011;65274;44.982;20.060;2024-02-15T10:31:53;14.00;;;9.75;;
76439;SDS011;65274;44.982;20.060;2024-02-15T10:34:20;14.48;;;11.25;;
76439;SDS011;65274;44.982;20.060;2024-02-15T10:36:46;14.95;;;11.20;;
76439;SDS011;65274;44.982;20.060;2024-02-15T10:39:13;18.75;;;10.73;;
76439;SDS011;65274;44.982;20.060;2024-02-15T10:41:58;15.50;;;11.30;;
76439;SDS011;65274;44.982;20.060;2024-02-15T10:44:24;19.70;;;12.13;;
76439;SDS011;65274;44.982;20.060;2024-02-15T10:46:51;18.97;;;11.13;;
76439;SDS011;65274;44.982;20.060;2024-02-15T10:51:44;16.73;;;10.18;;
76439;SDS011;65274;44.982;20.060;2024-02-15T10:54:12;18.20;;;11.80;;
76439;SDS011;65274;44.982;20.060;2024-02-15T10:56:42;19.85;;;12.50;;
76439;SDS011;65274;44.982;20.060;2024-02-15T11:01:40;19.38;;;12.52;;
76439;SDS011;65274;44.982;20.060;2024-02-15T11:04:07;20.20;;;9.85;;
76439;SDS011;65274;44.982;20.060;2024-02-15T11:06:34;17.42;;;10.95;;
76439;SDS011;65274;44.982;20.060;2024-02-15T11:09:01;19.95;;;9.88;;
76439;SDS011;65274;44.982;20.060;2024-02-15T11:11:28;14.88;;;9.73;;
76439;SDS011;65274;44.982;20.060;2024-02-15T11:17:02;18.05;;;10.88;;
76439;SDS011;65274;44.982;20.060;2024-02-15T11:22:01;12.90;;;9.30;;
76439;SDS011;65274;44.982;20.060;2024-02-15T11:24:32;16.40;;;10.10;;
76439;SDS011;65274;44.982;20.060;2024-02-15T11:27:01;16.30;;;9.60;;
76439;SDS011;65274;44.982;20.060;2024-02-15T11:35:36;16.80;;;10.35;;
76439;SDS011;65274;44.982;20.060;2024-02-15T11:38:28;15.93;;;9.15;;
76439;SDS011;65274;44.982;20.060;2024-02-15T11:46:18;24.67;;;15.10;;
76439;SDS011;65274;44.982;20.060;2024-02-15T11:48:47;15.93;;;9.55;;
76439;SDS011;65274;44.982;20.060;2024-02-15T11:54:11;10.80;;;8.68;;
76439;SDS011;65274;44.982;20.060;2024-02-15T11:59:12;17.50;;;10.88;;
76439;SDS011;65274;44.982;20.060;2024-02-15T12:01:54;14.68;;;10.65;;
76439;SDS011;65274;44.982;20.060;2024-02-15T12:04:39;12.90;;;9.60;;
76439;SDS011;65274;44.982;20.060;2024-02-15T12:07:23;12.50;;;9.10;;
76439;SDS011;65274;44.982;20.060;2024-02-15T12:10:14;12.93;;;9.05;;
76439;SDS011;65274;44.982;20.060;2024-02-15T12:12:59;17.42;;;10.77;;
76439;SDS011;65274;44.982;20.060;2024-02-15T12:15:55;13.80;;;10.45;;
76439;SDS011;65274;44.982;20.060;2024-02-15T12:18:40;13.17;;;9.13;;
76439;SDS011;65274;44.982;20.060;2024-02-15T12:21:14;11.10;;;8.68;;
76439;SDS011;65274;44.982;20.060;2024-02-15T12:23:41;14.40;;;9.10;;
76439;SDS011;65274;44.982;20.060;2024-02-15T12:26:07;10.85;;;8.98;;
76439;SDS011;65274;44.982;20.060;2024-02-15T12:28:34;11.32;;;8.70;;
76439;SDS011;65274;44.982;20.060;2024-02-15T12:31:01;9.43;;;7.57;;
76439;SDS011;65274;44.982;20.060;2024-02-15T12:33:27;10.80;;;6.70;;
76439;SDS011;65274;44.982;20.060;2024-02-15T12:36:04;8.05;;;7.10;;
76439;SDS011;65274;44.982;20.060;2024-02-15T12:38:30;12.18;;;7.95;;
76439;SDS011;65274;44.982;20.060;2024-02-15T12:40:56;8.02;;;6.47;;
76439;SDS011;65274;44.982;20.060;2024-02-15T12:43:22;9.15;;;6.82;;
76439;SDS011;65274;44.982;20.060;2024-02-15T12:45:49;7.78;;;6.10;;
76439;SDS011;65274;44.982;20.060;2024-02-15T12:48:15;13.02;;;7.10;;
76439;SDS011;65274;44.982;20.060;2024-02-15T12:50:41;12.88;;;9.70;;
76439;SDS011;65274;44.982;20.060;2024-02-15T12:53:07;8.25;;;6.03;;
76439;SDS011;65274;44.982;20.060;2024-02-15T12:55:33;7.03;;;6.32;;
76439;SDS011;65274;44.982;20.060;2024-02-15T13:00:29;6.88;;;5.82;;
76439;SDS011;65274;44.982;20.060;2024-02-15T13:02:56;8.68;;;6.75;;
76439;SDS011;65274;44.982;20.060;2024-02-15T13:05:24;9.85;;;7.20;;
76439;SDS011;65274;44.982;20.060;2024-02-15T13:07:51;9.98;;;7.40;;
76439;SDS011;65274;44.982;20.060;2024-02-15T13:10:20;9.25;;;6.80;;
76439;SDS011;65274;44.982;20.060;2024-02-15T13:12:46;8.55;;;6.53;;
76439;SDS011;65274;44.982;20.060;2024-02-15T13:15:12;9.15;;;6.60;;
76439;SDS011;65274;44.982;20.060;2024-02-15T13:17:52;8.45;;;7.03;;
76439;SDS011;65274;44.982;20.060;2024-02-15T13:20:22;9.40;;;6.80;;
76439;SDS011;65274;44.982;20.060;2024-02-15T13:22:58;7.93;;;6.95;;
76439;SDS011;65274;44.982;20.060;2024-02-15T13:25:27;8.23;;;6.38;;
76439;SDS011;65274;44.982;20.060;2024-02-15T13:27:53;8.43;;;7.53;;
76439;SDS011;65274;44.982;20.060;2024-02-15T13:30:19;9.73;;;7.38;;
76439;SDS011;65274;44.982;20.060;2024-02-15T13:32:49;11.00;;;8.10;;
76439;SDS011;65274;44.982;20.060;2024-02-15T13:35:19;11.35;;;8.65;;
76439;SDS011;65274;44.982;20.060;2024-02-15T13:37:49;9.20;;;7.68;;
76439;SDS011;65274;44.982;20.060;2024-02-15T13:40:17;9.40;;;7.65;;
76439;SDS011;65274;44.982;20.060;2024-02-15T13:42:47;10.35;;;7.38;;
76439;SDS011;65274;44.982;20.060;2024-02-15T13:45:39;12.43;;;8.40;;
76439;SDS011;65274;44.982;20.060;2024-02-15T13:48:06;13.77;;;8.02;;
76439;SDS011;65274;44.982;20.060;2024-02-15T13:50:33;13.77;;;5.97;;
76439;SDS011;65274;44.982;20.060;2024-02-15T13:53:00;12.40;;;6.00;;
76439;SDS011;65274;44.982;20.060;2024-02-15T13:55:27;13.48;;;6.50;;
76439;SDS011;65274;44.982;20.060;2024-02-15T13:57:54;18.95;;;7.28;;
76439;SDS011;65274;44.982;20.060;2024-02-15T14:00:21;13.52;;;8.18;;
76439;SDS011;65274;44.982;20.060;2024-02-15T14:05:14;9.52;;;6.65;;
76439;SDS011;65274;44.982;20.060;2024-02-15T14:07:42;10.05;;;5.93;;
76439;SDS011;65274;44.982;20.060;2024-02-15T14:12:37;11.40;;;9.25;;
76439;SDS011;65274;44.982;20.060;2024-02-15T14:15:04;14.88;;;9.02;;
76439;SDS011;65274;44.982;20.060;2024-02-15T14:17:31;13.98;;;9.68;;
76439;SDS011;65274;44.982;20.060;2024-02-15T14:19:57;11.17;;;7.57;;
76439;SDS011;65274;44.982;20.060;2024-02-15T14:22:23;13.65;;;7.15;;
76439;SDS011;65274;44.982;20.060;2024-02-15T14:24:53;11.05;;;7.32;;
76439;SDS011;65274;44.982;20.060;2024-02-15T14:27:20;9.35;;;7.03;;
76439;SDS011;65274;44.982;20.060;2024-02-15T14:29:46;10.38;;;8.10;;
76439;SDS011;65274;44.982;20.060;2024-02-15T14:32:30;11.95;;;7.22;;
76439;SDS011;65274;44.982;20.060;2024-02-15T14:35:15;22.77;;;8.20;;
76439;SDS011;65274;44.982;20.060;2024-02-15T14:37:42;15.63;;;6.32;;
76439;SDS011;65274;44.982;20.060;2024-02-15T14:40:09;15.93;;;10.43;;
76439;SDS011;65274;44.982;20.060;2024-02-15T14:42:35;14.52;;;8.52;;
76439;SDS011;65274;44.982;20.060;2024-02-15T14:45:03;12.05;;;7.63;;
76439;SDS011;65274;44.982;20.060;2024-02-15T14:47:31;12.48;;;7.40;;
76439;SDS011;65274;44.982;20.060;2024-02-15T14:49:58;17.35;;;9.57;;
76439;SDS011;65274;44.982;20.060;2024-02-15T16:53:32;60.42;;;29.75;;
76439;SDS011;65274;44.982;20.060;2024-02-15T16:56:01;48.42;;;24.58;;
76439;SDS011;65274;44.982;20.060;2024-02-15T16:58:28;53.88;;;24.00;;
76439;SDS011;65274;44.982;20.060;2024-02-15T17:00:55;47.13;;;24.92;;
76439;SDS011;65274;44.982;20.060;2024-02-15T17:03:23;62.47;;;29.45;;
76439;SDS011;65274;44.982;20.060;2024-02-15T17:05:52;74.60;;;33.70;;
76439;SDS011;65274;44.982;20.060;2024-02-15T17:08:19;56.77;;;27.73;;
76439;SDS011;65274;44.982;20.060;2024-02-15T17:10:46;59.92;;;28.52;;
76439;SDS011;65274;44.982;20.060;2024-02-15T17:13:12;50.17;;;21.67;;
76439;SDS011;65274;44.982;20.060;2024-02-15T17:15:40;52.07;;;22.13;;
76439;SDS011;65274;44.982;20.060;2024-02-15T17:18:06;41.17;;;22.10;;
76439;SDS011;65274;44.982;20.060;2024-02-15T17:20:33;70.90;;;27.38;;
76439;SDS011;65274;44.982;20.060;2024-02-15T17:22:59;81.43;;;26.90;;
76439;SDS011;65274;44.982;20.060;2024-02-15T17:25:26;69.90;;;30.27;;
76439;SDS011;65274;44.982;20.060;2024-02-15T17:27:53;90.40;;;40.72;;
76439;SDS011;65274;44.982;20.060;2024-02-15T17:30:23;82.22;;;44.63;;
76439;SDS011;65274;44.982;20.060;2024-02-15T17:32:49;86.93;;;40.38;;
76439;SDS011;65274;44.982;20.060;2024-02-15T17:35:16;89.78;;;40.83;;
76439;SDS011;65274;44.982;20.060;2024-02-15T17:37:44;129.95;;;46.58;;
76439;SDS011;65274;44.982;20.060;2024-02-15T17:40:10;135.93;;;52.35;;
76439;SDS011;65274;44.982;20.060;2024-02-15T17:42:40;123.25;;;47.47;;
76439;SDS011;65274;44.982;20.060;2024-02-15T17:45:11;107.25;;;44.65;;
76439;SDS011;65274;44.982;20.060;2024-02-15T17:47:38;119.40;;;50.50;;
76439;SDS011;65274;44.982;20.060;2024-02-15T17:50:08;109.22;;;48.38;;
76439;SDS011;65274;44.982;20.060;2024-02-15T17:52:36;108.82;;;48.47;;
76439;SDS011;65274;44.982;20.060;2024-02-15T17:55:02;122.93;;;54.55;;
76439;SDS011;65274;44.982;20.060;2024-02-15T17:57:31;149.60;;;63.35;;
76439;SDS011;65274;44.982;20.060;2024-02-15T18:00:01;114.20;;;48.85;;
76439;SDS011;65274;44.982;20.060;2024-02-15T18:02:27;106.53;;;46.65;;
76439;SDS011;65274;44.982;20.060;2024-02-15T18:04:54;120.40;;;49.22;;
76439;SDS011;65274;44.982;20.060;2024-02-15T18:07:22;101.35;;;48.00;;
76439;SDS011;65274;44.982;20.060;2024-02-15T18:10:08;104.70;;;47.42;;
76439;SDS011;65274;44.982;20.060;2024-02-15T18:15:47;89.55;;;44.08;;
76439;SDS011;65274;44.982;20.060;2024-02-15T18:18:18;115.72;;;50.30;;
76439;SDS011;65274;44.982;20.060;2024-02-15T18:20:44;147.48;;;52.85;;
76439;SDS011;65274;44.982;20.060;2024-02-15T18:23:10;163.18;;;62.63;;
76439;SDS011;65274;44.982;20.060;2024-02-15T18:25:37;161.55;;;63.05;;
76439;SDS011;65274;44.982;20.060;2024-02-15T18:28:04;155.20;;;58.10;;
76439;SDS011;65274;44.982;20.060;2024-02-15T18:30:31;155.13;;;59.20;;
76439;SDS011;65274;44.982;20.060;2024-02-15T18:32:58;138.98;;;61.60;;
76439;SDS011;65274;44.982;20.060;2024-02-15T18:35:24;140.32;;;55.55;;
76439;SDS011;65274;44.982;20.060;2024-02-15T18:37:53;124.22;;;53.28;;
76439;SDS011;65274;44.982;20.060;2024-02-15T18:40:20;108.10;;;49.72;;
76439;SDS011;65274;44.982;20.060;2024-02-15T18:42:46;111.85;;;49.83;;
76439;SDS011;65274;44.982;20.060;2024-02-15T18:45:13;106.20;;;50.72;;
76439;SDS011;65274;44.982;20.060;2024-02-15T18:47:39;117.78;;;54.55;;
76439;SDS011;65274;44.982;20.060;2024-02-15T18:50:05;124.85;;;53.75;;
76439;SDS011;65274;44.982;20.060;2024-02-15T18:52:34;131.68;;;53.13;;
76439;SDS011;65274;44.982;20.060;2024-02-15T18:55:00;121.93;;;57.53;;
76439;SDS011;65274;44.982;20.060;2024-02-15T18:57:26;127.63;;;56.85;;
76439;SDS011;65274;44.982;20.060;2024-02-15T18:59:52;137.90;;;57.63;;
76439;SDS011;65274;44.982;20.060;2024-02-15T19:02:20;172.07;;;70.20;;
76439;SDS011;65274;44.982;20.060;2024-02-15T19:04:47;200.35;;;82.85;;
76439;SDS011;65274;44.982;20.060;2024-02-15T19:07:13;180.55;;;77.97;;
76439;SDS011;65274;44.982;20.060;2024-02-15T19:09:40;173.18;;;73.47;;
76439;SDS011;65274;44.982;20.060;2024-02-15T19:12:08;192.98;;;83.45;;
76439;SDS011;65274;44.982;20.060;2024-02-15T19:14:35;233.63;;;89.10;;
76439;SDS011;65274;44.982;20.060;2024-02-15T19:17:01;174.63;;;80.95;;
76439;SDS011;65274;44.982;20.060;2024-02-15T19:19:27;182.90;;;78.65;;
76439;SDS011;65274;44.982;20.060;2024-02-15T19:21:53;179.57;;;82.38;;
76439;SDS011;65274;44.982;20.060;2024-02-15T19:24:20;149.88;;;67.97;;
76439;SDS011;65274;44.982;20.060;2024-02-15T19:26:46;152.82;;;63.15;;
76439;SDS011;65274;44.982;20.060;2024-02-15T19:29:12;159.18;;;73.72;;
76439;SDS011;65274;44.982;20.060;2024-02-15T19:31:38;141.27;;;62.38;;
76439;SDS011;65274;44.982;20.060;2024-02-15T19:34:05;162.90;;;71.65;;
76439;SDS011;65274;44.982;20.060;2024-02-15T19:36:32;144.52;;;60.75;;
76439;SDS011;65274;44.982;20.060;2024-02-15T19:39:01;116.78;;;52.85;;
76439;SDS011;65274;44.982;20.060;2024-02-15T19:41:33;131.77;;;56.80;;
76439;SDS011;65274;44.982;20.060;2024-02-15T19:44:00;152.35;;;62.75;;
76439;SDS011;65274;44.982;20.060;2024-02-15T19:46:33;117.32;;;50.70;;
76439;SDS011;65274;44.982;20.060;2024-02-15T19:49:09;116.68;;;52.22;;
76439;SDS011;65274;44.982;20.060;2024-02-15T19:51:36;104.60;;;49.47;;
76439;SDS011;65274;44.982;20.060;2024-02-15T19:54:03;108.95;;;52.13;;
76439;SDS011;65274;44.982;20.060;2024-02-15T19:56:32;111.50;;;52.35;;
76439;SDS011;65274;44.982;20.060;2024-02-15T19:59:00;123.30;;;55.45;;
76439;SDS011;65274;44.982;20.060;2024-02-15T20:01:26;115.53;;;53.83;;
76439;SDS011;65274;44.982;20.060;2024-02-15T20:03:53;106.78;;;54.22;;
76439;SDS011;65274;44.982;20.060;2024-02-15T20:06:21;97.68;;;48.47;;
76439;SDS011;65274;44.982;20.060;2024-02-15T20:08:49;121.03;;;55.25;;
76439;SDS011;65274;44.982;20.060;2024-02-15T20:11:16;94.47;;;47.13;;
76439;SDS011;65274;44.982;20.060;2024-02-15T20:13:43;87.65;;;43.20;;
76439;SDS011;65274;44.982;20.060;2024-02-15T20:16:13;68.82;;;36.22;;
76439;SDS011;65274;44.982;20.060;2024-02-15T20:18:47;68.10;;;33.60;;
76439;SDS011;65274;44.982;20.060;2024-02-15T20:21:15;70.43;;;34.17;;
76439;SDS011;65274;44.982;20.060;2024-02-15T20:23:44;72.68;;;36.83;;
76439;SDS011;65274;44.982;20.060;2024-02-15T20:26:15;88.50;;;43.88;;
76439;SDS011;65274;44.982;20.060;2024-02-15T20:28:41;95.70;;;45.33;;
76439;SDS011;65274;44.982;20.060;2024-02-15T20:31:07;96.70;;;45.47;;
76439;SDS011;65274;44.982;20.060;2024-02-15T20:33:35;84.75;;;41.50;;
76439;SDS011;65274;44.982;20.060;2024-02-15T20:36:07;154.82;;;51.05;;
76439;SDS011;65274;44.982;20.060;2024-02-15T20:38:33;107.50;;;47.85;;
76439;SDS011;65274;44.982;20.060;2024-02-15T20:40:59;120.72;;;50.05;;
76439;SDS011;65274;44.982;20.060;2024-02-15T20:45:55;118.05;;;48.83;;
76439;SDS011;65274;44.982;20.060;2024-02-15T20:48:22;132.98;;;50.78;;
76439;SDS011;65274;44.982;20.060;2024-02-15T20:50:48;124.28;;;51.45;;
76439;SDS011;65274;44.982;20.060;2024-02-15T20:53:15;109.60;;;48.17;;
76439;SDS011;65274;44.982;20.060;2024-02-15T20:55:42;94.63;;;45.70;;
76439;SDS011;65274;44.982;20.060;2024-02-15T20:58:08;105.10;;;49.30;;
76439;SDS011;65274;44.982;20.060;2024-02-15T21:00:35;106.32;;;49.08;;
76439;SDS011;65274;44.982;20.060;2024-02-15T21:03:01;109.40;;;49.50;;
76439;SDS011;65274;44.982;20.060;2024-02-15T21:05:30;100.90;;;47.78;;
76439;SDS011;65274;44.982;20.060;2024-02-15T21:07:57;94.38;;;42.60;;
76439;SDS011;65274;44.982;20.060;2024-02-15T21:10:24;90.25;;;44.15;;
76439;SDS011;65274;44.982;20.060;2024-02-15T21:12:52;88.97;;;47.05;;
76439;SDS011;65274;44.982;20.060;2024-02-15T21:15:18;95.78;;;45.88;;
76439;SDS011;65274;44.982;20.060;2024-02-15T21:17:45;77.75;;;42.03;;
76439;SDS011;65274;44.982;20.060;2024-02-15T21:20:14;86.25;;;40.58;;
76439;SDS011;65274;44.982;20.060;2024-02-15T21:22:41;88.28;;;39.42;;
76439;SDS011;65274;44.982;20.060;2024-02-15T21:25:08;79.18;;;42.20;;
76439;SDS011;65274;44.982;20.060;2024-02-15T21:27:34;76.65;;;38.58;;
76439;SDS011;65274;44.982;20.060;2024-02-15T21:30:01;95.05;;;40.95;;
76439;SDS011;65274;44.982;20.060;2024-02-15T21:32:30;76.10;;;38.70;;
76439;SDS011;65274;44.982;20.060;2024-02-15T21:34:57;67.97;;;39.73;;
76439;SDS011;65274;44.982;20.060;2024-02-15T21:37:23;75.85;;;37.83;;
76439;SDS011;65274;44.982;20.060;2024-02-15T21:39:53;68.32;;;34.83;;
76439;SDS011;65274;44.982;20.060;2024-02-15T21:42:19;69.70;;;36.28;;
76439;SDS011;65274;44.982;20.060;2024-02-15T21:44:49;68.57;;;35.60;;
76439;SDS011;65274;44.982;20.060;2024-02-15T21:47:15;63.90;;;34.53;;
76439;SDS011;65274;44.982;20.060;2024-02-15T21:49:43;65.80;;;34.83;;
76439;SDS011;65274;44.982;20.060;2024-02-15T21:52:12;65.65;;;36.08;;
76439;SDS011;65274;44.982;20.060;2024-02-15T21:54:42;77.10;;;37.95;;
76439;SDS011;65274;44.982;20.060;2024-02-15T21:57:08;73.63;;;40.17;;
76439;SDS011;65274;44.982;20.060;2024-02-15T21:59:35;73.07;;;39.15;;
76439;SDS011;65274;44.982;20.060;2024-02-15T22:02:03;71.80;;;38.95;;
76439;SDS011;65274;44.982;20.060;2024-02-15T22:04:36;80.63;;;42.20;;
76439;SDS011;65274;44.982;20.060;2024-02-15T22:07:02;76.43;;;39.55;;
76439;SDS011;65274;44.982;20.060;2024-02-15T22:09:32;75.03;;;38.33;;
76439;SDS011;65274;44.982;20.060;2024-02-15T22:12:00;77.03;;;38.33;;
76439;SDS011;65274;44.982;20.060;2024-02-15T22:14:27;70.65;;;36.90;;
76439;SDS011;65274;44.982;20.060;2024-02-15T22:16:54;65.55;;;35.78;;
76439;SDS011;65274;44.982;20.060;2024-02-15T22:19:20;59.50;;;33.20;;
76439;SDS011;65274;44.982;20.060;2024-02-15T22:21:48;60.90;;;33.47;;
76439;SDS011;65274;44.982;20.060;2024-02-15T22:24:16;65.00;;;33.17;;
76439;SDS011;65274;44.982;20.060;2024-02-15T22:26:43;63.28;;;35.47;;
76439;SDS011;65274;44.982;20.060;2024-02-15T22:29:09;63.97;;;32.05;;
76439;SDS011;65274;44.982;20.060;2024-02-15T22:31:36;63.85;;;33.15;;
76439;SDS011;65274;44.982;20.060;2024-02-15T22:34:02;56.20;;;31.25;;
76439;SDS011;65274;44.982;20.060;2024-02-15T22:36:29;60.90;;;33.88;;
76439;SDS011;65274;44.982;20.060;2024-02-15T22:38:57;66.18;;;34.65;;
76439;SDS011;65274;44.982;20.060;2024-02-15T22:41:23;60.92;;;34.55;;
76439;SDS011;65274;44.982;20.060;2024-02-15T22:43:50;58.92;;;31.20;;
76439;SDS011;65274;44.982;20.060;2024-02-15T22:46:16;62.63;;;32.38;;
76439;SDS011;65274;44.982;20.060;2024-02-15T22:48:44;61.13;;;34.90;;
76439;SDS011;65274;44.982;20.060;2024-02-15T22:51:12;65.18;;;34.95;;
76439;SDS011;65274;44.982;20.060;2024-02-15T22:53:39;56.73;;;32.47;;
76439;SDS011;65274;44.982;20.060;2024-02-15T22:56:11;59.35;;;33.78;;
76439;SDS011;65274;44.982;20.060;2024-02-15T22:58:38;63.53;;;33.83;;
76439;SDS011;65274;44.982;20.060;2024-02-15T23:01:11;60.83;;;34.22;;
76439;SDS011;65274;44.982;20.060;2024-02-15T23:03:38;59.65;;;31.85;;
76439;SDS011;65274;44.982;20.060;2024-02-15T23:06:07;65.75;;;35.85;;
76439;SDS011;65274;44.982;20.060;2024-02-15T23:08:36;68.55;;;35.05;;
76439;SDS011;65274;44.982;20.060;2024-02-15T23:11:03;64.03;;;33.15;;
76439;SDS011;65274;44.982;20.060;2024-02-15T23:13:31;80.43;;;37.38;;
76439;SDS011;65274;44.982;20.060;2024-02-15T23:15:57;75.65;;;38.85;;
76439;SDS011;65274;44.982;20.060;2024-02-15T23:18:23;77.88;;;40.42;;
76439;SDS011;65274;44.982;20.060;2024-02-15T23:20:51;104.20;;;45.43;;
76439;SDS011;65274;44.982;20.060;2024-02-15T23:23:17;84.25;;;43.33;;
76439;SDS011;65274;44.982;20.060;2024-02-15T23:25:47;85.90;;;42.35;;
76439;SDS011;65274;44.982;20.060;2024-02-15T23:28:13;79.63;;;39.15;;
76439;SDS011;65274;44.982;20.060;2024-02-15T23:30:40;77.80;;;38.03;;
76439;SDS011;65274;44.982;20.060;2024-02-15T23:33:07;77.18;;;39.83;;
76439;SDS011;65274;44.982;20.060;2024-02-15T23:35:36;75.57;;;37.97;;
76439;SDS011;65274;44.982;20.060;2024-02-15T23:38:12;80.25;;;38.72;;
76439;SDS011;65274;44.982;20.060;2024-02-15T23:40:58;59.90;;;33.67;;
76439;SDS011;65274;44.982;20.060;2024-02-15T23:43:25;65.37;;;36.60;;
76439;SDS011;65274;44.982;20.060;2024-02-15T23:45:51;59.60;;;33.17;;
76439;SDS011;65274;44.982;20.060;2024-02-15T23:48:18;54.30;;;30.60;;
76439;SDS011;65274;44.982;20.060;2024-02-15T23:50:44;62.58;;;32.67;;
76439;SDS011;65274;44.982;20.060;2024-02-15T23:53:10;51.97;;;29.65;;
76439;SDS011;65274;44.982;20.060;2024-02-15T23:55:37;55.22;;;33.03;;
76439;SDS011;65274;44.982;20.060;2024-02-15T23:58:07;63.63;;;33.65;;
